Time;durP1;ratioP1;P1;durP2;ratioP2;P2;SDS_P1;SDS_P2;PMS_P1;PMS_P2;Temp;Humidity;BMP_temperature;BMP_pressure;BME280_temperature;BME280_humidity;BME280_pressure;Samples;Min_cycle;Max_cycle;Signal;HPM_P1;HPM_P2
2022/04/12 00:01:22;;;;;;;4.72;2.10;;;;;;;;;;5048029;28;20547;-57
2022/04/12 00:03:48;;;;;;;4.75;2.42;;;;;;;;;;5044734;28;20486;-57
2022/04/12 00:06:14;;;;;;;5.00;2.30;;;;;;;;;;5051265;28;20546;-56
2022/04/12 00:08:40;;;;;;;7.10;2.47;;;;;;;;;;5051982;28;20044;-57
2022/04/12 00:11:06;;;;;;;4.78;2.20;;;;;;;;;;5044494;28;20104;-57
2022/04/12 00:13:33;;;;;;;7.90;2.63;;;;;;;;;;5051555;28;20541;-56
2022/04/12 00:15:59;;;;;;;5.55;2.47;;;;;;;;;;5051716;28;20130;-56
2022/04/12 00:21:09;;;;;;;4.95;2.25;;;;;;;;;;5052030;28;20549;-58
2022/04/12 00:23:36;;;;;;;5.97;2.10;;;;;;;;;;5052254;28;20815;-54
2022/04/12 00:26:03;;;;;;;4.20;1.90;;;;;;;;;;5050283;28;20521;-57
2022/04/12 00:28:29;;;;;;;5.75;2.47;;;;;;;;;;5050824;28;20025;-57
2022/04/12 00:30:55;;;;;;;5.47;2.13;;;;;;;;;;5051491;28;20055;-56
2022/04/12 00:33:22;;;;;;;6.53;2.13;;;;;;;;;;5051036;28;20029;-57
2022/04/12 00:35:48;;;;;;;5.22;2.22;;;;;;;;;;5051716;28;20107;-56
2022/04/12 00:38:22;;;;;;;5.03;2.20;;;;;;;;;;5050880;28;20111;-58
2022/04/12 00:40:49;;;;;;;4.88;2.00;;;;;;;;;;5043936;28;20036;-57
2022/04/12 00:43:19;;;;;;;3.83;2.00;;;;;;;;;;5050444;28;20451;-57
2022/04/12 00:45:45;;;;;;;4.47;2.05;;;;;;;;;;5051166;28;20037;-57
2022/04/12 00:48:11;;;;;;;4.28;1.73;;;;;;;;;;5050749;28;20079;-57
2022/04/12 00:50:38;;;;;;;4.95;2.17;;;;;;;;;;5050428;28;20083;-57
2022/04/12 00:53:04;;;;;;;5.85;2.33;;;;;;;;;;5050367;28;20521;-57
2022/04/12 00:55:31;;;;;;;4.72;2.17;;;;;;;;;;5049898;28;20681;-57
2022/04/12 00:57:57;;;;;;;4.82;2.17;;;;;;;;;;5050055;28;20351;-57
2022/04/12 01:00:24;;;;;;;5.22;1.75;;;;;;;;;;5050518;28;20116;-57
2022/04/12 01:02:50;;;;;;;5.15;1.92;;;;;;;;;;5050003;28;20052;-57
2022/04/12 01:05:17;;;;;;;3.30;1.85;;;;;;;;;;5050728;28;20175;-56
2022/04/12 01:07:43;;;;;;;4.63;2.20;;;;;;;;;;5050848;28;20544;-53
2022/04/12 01:10:09;;;;;;;5.05;1.70;;;;;;;;;;5049274;28;20475;-55
2022/04/12 01:12:38;;;;;;;3.85;1.83;;;;;;;;;;5050103;28;20028;-54
2022/04/12 01:15:18;;;;;;;5.23;2.40;;;;;;;;;;5050177;28;20023;-56
2022/04/12 01:17:44;;;;;;;4.40;1.95;;;;;;;;;;5050632;28;20051;-55
2022/04/12 01:20:11;;;;;;;5.97;2.25;;;;;;;;;;5050338;28;20040;-55
2022/04/12 01:23:00;;;;;;;3.85;1.85;;;;;;;;;;5049961;28;20079;-59
2022/04/12 01:25:26;;;;;;;4.55;1.75;;;;;;;;;;5045045;28;20041;-54
2022/04/12 01:27:54;;;;;;;3.88;2.10;;;;;;;;;;5050524;28;20039;-55
2022/04/12 01:30:21;;;;;;;4.38;1.98;;;;;;;;;;5049615;28;20057;-57
2022/04/12 01:32:47;;;;;;;5.00;2.30;;;;;;;;;;5050106;28;20029;-57
2022/04/12 01:35:14;;;;;;;4.35;2.20;;;;;;;;;;5045705;28;20037;-57
2022/04/12 01:37:40;;;;;;;4.07;2.10;;;;;;;;;;5043186;28;20041;-56
2022/04/12 01:40:06;;;;;;;4.35;2.08;;;;;;;;;;5047305;28;20040;-55
2022/04/12 01:42:32;;;;;;;4.63;1.90;;;;;;;;;;5039602;28;20065;-57
2022/04/12 01:44:59;;;;;;;6.38;2.45;;;;;;;;;;5050475;28;20112;-56
2022/04/12 01:47:25;;;;;;;5.40;1.77;;;;;;;;;;5049759;28;20433;-56
2022/04/12 01:49:51;;;;;;;3.55;1.83;;;;;;;;;;5049360;28;20025;-56
2022/04/12 01:52:17;;;;;;;3.75;1.88;;;;;;;;;;5049265;28;20044;-57
2022/04/12 01:54:43;;;;;;;3.90;1.80;;;;;;;;;;5048098;28;20021;-56
2022/04/12 01:57:09;;;;;;;3.72;1.90;;;;;;;;;;5036857;28;20569;-58
2022/04/12 01:59:35;;;;;;;3.63;1.92;;;;;;;;;;5032217;28;20053;-57
2022/04/12 02:02:01;;;;;;;4.47;2.03;;;;;;;;;;5047982;28;20090;-57
2022/04/12 02:04:27;;;;;;;4.03;2.03;;;;;;;;;;5047187;28;20535;-54
2022/04/12 02:06:53;;;;;;;3.92;1.88;;;;;;;;;;5047938;28;20029;-58
2022/04/12 02:09:19;;;;;;;4.30;2.00;;;;;;;;;;5047617;28;20029;-54
2022/04/12 02:11:45;;;;;;;3.47;1.83;;;;;;;;;;5049253;28;20064;-57
2022/04/12 02:14:11;;;;;;;4.55;2.15;;;;;;;;;;5049293;28;20391;-56
2022/04/12 02:16:37;;;;;;;4.65;2.28;;;;;;;;;;5049355;28;20036;-57
2022/04/12 02:19:03;;;;;;;5.32;1.88;;;;;;;;;;5049972;28;20043;-56
2022/04/12 02:21:29;;;;;;;3.97;2.40;;;;;;;;;;5048985;28;20032;-54
2022/04/12 02:23:55;;;;;;;4.03;1.88;;;;;;;;;;5048323;28;20075;-57
2022/04/12 02:26:21;;;;;;;4.85;2.00;;;;;;;;;;5047959;28;20547;-57
2022/04/12 02:28:47;;;;;;;3.13;1.88;;;;;;;;;;5048681;28;20032;-56
2022/04/12 02:31:13;;;;;;;4.68;2.15;;;;;;;;;;5048276;28;20475;-55
2022/04/12 02:33:40;;;;;;;3.13;1.73;;;;;;;;;;5049265;28;20052;-55
2022/04/12 02:36:06;;;;;;;3.65;1.80;;;;;;;;;;5049416;28;20029;-57
2022/04/12 02:38:32;;;;;;;4.90;1.90;;;;;;;;;;5047704;28;20505;-57
2022/04/12 02:40:58;;;;;;;4.95;1.90;;;;;;;;;;5036420;28;20033;-55
2022/04/12 02:43:24;;;;;;;5.22;2.20;;;;;;;;;;5048261;28;20036;-56
2022/04/12 02:45:51;;;;;;;4.20;2.10;;;;;;;;;;5048501;28;20114;-57
2022/04/12 02:48:17;;;;;;;3.28;1.58;;;;;;;;;;5048563;28;20025;-55
2022/04/12 02:50:43;;;;;;;5.13;2.10;;;;;;;;;;5049151;28;20458;-57
2022/04/12 02:53:09;;;;;;;4.82;2.17;;;;;;;;;;5048312;28;20029;-57
2022/04/12 02:55:35;;;;;;;4.40;1.83;;;;;;;;;;5048159;28;20021;-55
2022/04/12 02:58:01;;;;;;;3.88;1.85;;;;;;;;;;5047886;28;20729;-57
2022/04/12 03:00:29;;;;;;;3.67;1.98;;;;;;;;;;5048637;28;20159;-59
2022/04/12 03:02:55;;;;;;;4.43;1.73;;;;;;;;;;5048858;28;20025;-57
2022/04/12 03:05:22;;;;;;;5.15;2.03;;;;;;;;;;5048966;28;20036;-56
2022/04/12 03:07:49;;;;;;;3.97;1.75;;;;;;;;;;5048496;28;20086;-56
2022/04/12 03:10:15;;;;;;;4.72;2.10;;;;;;;;;;5048639;28;20036;-57
2022/04/12 03:12:41;;;;;;;3.55;1.88;;;;;;;;;;5049019;28;20060;-57
2022/04/12 03:15:08;;;;;;;3.30;2.05;;;;;;;;;;5049491;28;20163;-56
2022/04/12 03:17:34;;;;;;;4.72;1.80;;;;;;;;;;5048640;28;20037;-55
2022/04/12 03:20:01;;;;;;;4.72;2.22;;;;;;;;;;5049202;28;20650;-56
2022/04/12 03:22:27;;;;;;;5.10;2.15;;;;;;;;;;5048678;28;20028;-57
2022/04/12 03:24:54;;;;;;;4.07;2.10;;;;;;;;;;5047983;28;20118;-56
2022/04/12 03:27:20;;;;;;;3.38;1.95;;;;;;;;;;5047035;28;20039;-54
2022/04/12 03:29:46;;;;;;;3.53;1.75;;;;;;;;;;5048814;28;20037;-57
2022/04/12 03:32:12;;;;;;;5.28;2.33;;;;;;;;;;5047739;28;20082;-53
2022/04/12 03:34:40;;;;;;;3.85;1.88;;;;;;;;;;5048679;28;20535;-56
2022/04/12 03:37:06;;;;;;;3.90;1.77;;;;;;;;;;5049052;28;20403;-53
2022/04/12 03:39:32;;;;;;;4.18;1.80;;;;;;;;;;5050721;28;20513;-55
2022/04/12 03:41:59;;;;;;;3.40;1.77;;;;;;;;;;5051426;28;20029;-57
2022/04/12 03:44:25;;;;;;;3.67;1.85;;;;;;;;;;5051106;28;20075;-54
2022/04/12 03:46:51;;;;;;;4.50;1.88;;;;;;;;;;5052004;28;20041;-56
2022/04/12 03:49:17;;;;;;;4.55;2.60;;;;;;;;;;5049659;28;20029;-56
2022/04/12 03:51:43;;;;;;;4.10;1.88;;;;;;;;;;5051782;28;20549;-57
2022/04/12 03:54:09;;;;;;;3.47;1.75;;;;;;;;;;5043785;28;20055;-57
2022/04/12 03:56:35;;;;;;;3.72;2.10;;;;;;;;;;5040172;28;20457;-56
2022/04/12 03:59:01;;;;;;;13.35;4.72;;;;;;;;;;5051349;28;20032;-54
2022/04/12 04:01:28;;;;;;;13.05;4.78;;;;;;;;;;5051819;28;20036;-57
2022/04/12 04:03:55;;;;;;;12.27;5.63;;;;;;;;;;5049057;28;20104;-54
2022/04/12 04:06:21;;;;;;;16.13;5.88;;;;;;;;;;5052262;28;20033;-56
2022/04/12 04:08:47;;;;;;;18.02;7.38;;;;;;;;;;5051785;28;20729;-57
2022/04/12 04:11:13;;;;;;;14.60;4.80;;;;;;;;;;5044110;28;20463;-56
2022/04/12 04:13:40;;;;;;;10.65;5.90;;;;;;;;;;5043993;28;20029;-56
2022/04/12 04:16:06;;;;;;;12.60;5.30;;;;;;;;;;5051573;28;20553;-57
2022/04/12 04:18:33;;;;;;;11.10;4.90;;;;;;;;;;5051302;28;20041;-57
2022/04/12 04:20:59;;;;;;;11.77;5.20;;;;;;;;;;5051147;28;20039;-57
2022/04/12 04:23:25;;;;;;;8.27;4.78;;;;;;;;;;5050310;28;20112;-56
2022/04/12 04:25:51;;;;;;;9.50;5.93;;;;;;;;;;5049795;28;20033;-53
2022/04/12 04:28:21;;;;;;;9.68;5.22;;;;;;;;;;5034734;28;20137;-57
2022/04/12 04:30:49;;;;;;;10.25;5.25;;;;;;;;;;5045697;28;20487;-57
2022/04/12 04:33:15;;;;;;;7.90;4.97;;;;;;;;;;5037338;28;20063;-58
2022/04/12 04:35:41;;;;;;;12.55;5.70;;;;;;;;;;5042716;28;20792;-58
2022/04/12 04:38:07;;;;;;;12.18;5.07;;;;;;;;;;5050241;28;20470;-57
2022/04/12 04:40:33;;;;;;;8.80;4.95;;;;;;;;;;5039852;28;20041;-57
2022/04/12 04:42:59;;;;;;;9.23;4.40;;;;;;;;;;5050638;28;20036;-57
2022/04/12 04:45:26;;;;;;;8.90;4.63;;;;;;;;;;5047250;28;20037;-56
2022/04/12 04:47:53;;;;;;;8.43;4.20;;;;;;;;;;5051191;28;20040;-56
2022/04/12 04:50:20;;;;;;;8.82;4.90;;;;;;;;;;5049747;28;20111;-55
2022/04/12 04:52:46;;;;;;;10.02;4.78;;;;;;;;;;5051128;28;20083;-56
2022/04/12 04:55:12;;;;;;;12.48;4.25;;;;;;;;;;5043495;28;20021;-57
2022/04/12 04:57:39;;;;;;;10.70;4.57;;;;;;;;;;5050817;28;20037;-57
2022/04/12 05:00:06;;;;;;;12.30;4.63;;;;;;;;;;5037389;28;20029;-57
2022/04/12 05:02:33;;;;;;;10.35;4.95;;;;;;;;;;5050584;28;20487;-56
2022/04/12 05:04:59;;;;;;;10.85;4.88;;;;;;;;;;5040925;28;20034;-56
2022/04/12 05:07:26;;;;;;;10.63;4.95;;;;;;;;;;5048671;28;20044;-56
2022/04/12 05:09:52;;;;;;;19.95;5.60;;;;;;;;;;5049485;28;20033;-56
2022/04/12 05:12:18;;;;;;;12.50;4.63;;;;;;;;;;5048523;28;20407;-52
2022/04/12 05:14:44;;;;;;;14.60;4.60;;;;;;;;;;5048487;28;20108;-55
2022/04/12 05:17:10;;;;;;;11.82;5.32;;;;;;;;;;5047755;28;20033;-57
2022/04/12 05:19:37;;;;;;;13.25;3.97;;;;;;;;;;5048668;28;20108;-57
2022/04/12 05:22:03;;;;;;;10.80;4.43;;;;;;;;;;5048587;28;20079;-57
2022/04/12 05:24:29;;;;;;;11.05;4.70;;;;;;;;;;5048328;28;20132;-57
2022/04/12 05:26:55;;;;;;;11.35;4.43;;;;;;;;;;5046789;28;20029;-56
2022/04/12 05:29:21;;;;;;;9.68;4.20;;;;;;;;;;5047480;28;20084;-54
2022/04/12 05:31:47;;;;;;;10.43;4.43;;;;;;;;;;5048281;28;20119;-56
2022/04/12 05:34:13;;;;;;;10.73;4.15;;;;;;;;;;5049312;28;20106;-56
2022/04/12 05:36:39;;;;;;;8.85;3.55;;;;;;;;;;5048415;28;20020;-56
2022/04/12 05:39:05;;;;;;;8.57;4.15;;;;;;;;;;5049677;28;20754;-56
2022/04/12 05:41:31;;;;;;;8.07;3.92;;;;;;;;;;5049199;28;20033;-57
2022/04/12 05:43:57;;;;;;;9.88;4.05;;;;;;;;;;5050092;28;20021;-54
2022/04/12 05:46:23;;;;;;;9.98;3.60;;;;;;;;;;5029814;28;20582;-56
2022/04/12 05:48:49;;;;;;;8.70;3.78;;;;;;;;;;5047551;28;20025;-56
2022/04/12 05:51:15;;;;;;;8.25;3.88;;;;;;;;;;5049855;28;20021;-56
2022/04/12 05:53:41;;;;;;;12.57;4.03;;;;;;;;;;5049853;28;20025;-56
2022/04/12 05:56:07;;;;;;;8.02;3.47;;;;;;;;;;5049152;28;20082;-55
2022/04/12 05:58:35;;;;;;;6.93;3.67;;;;;;;;;;5049415;28;20037;-51
2022/04/12 06:01:01;;;;;;;10.77;3.97;;;;;;;;;;5049071;28;20033;-50
2022/04/12 06:03:27;;;;;;;8.35;3.67;;;;;;;;;;5049986;28;20025;-54
2022/04/12 06:05:53;;;;;;;7.72;4.07;;;;;;;;;;5049561;28;20052;-50
2022/04/12 06:08:20;;;;;;;9.05;3.60;;;;;;;;;;5037548;28;20434;-55
2022/04/12 06:10:46;;;;;;;8.63;4.05;;;;;;;;;;5049497;28;20087;-55
2022/04/12 06:13:14;;;;;;;9.68;4.22;;;;;;;;;;5049026;28;20547;-55
2022/04/12 06:15:40;;;;;;;6.28;3.53;;;;;;;;;;5047447;28;20103;-54
2022/04/12 06:18:06;;;;;;;9.02;3.42;;;;;;;;;;5048963;28;20041;-52
2022/04/12 06:20:34;;;;;;;8.60;4.30;;;;;;;;;;5048652;28;20033;-55
2022/04/12 06:23:00;;;;;;;7.20;3.42;;;;;;;;;;5049107;28;20658;-56
2022/04/12 06:25:27;;;;;;;7.80;4.00;;;;;;;;;;5044489;28;20029;-54
2022/04/12 06:27:53;;;;;;;7.97;3.58;;;;;;;;;;5029569;28;20108;-56
2022/04/12 06:30:20;;;;;;;8.52;3.63;;;;;;;;;;5047118;28;20057;-56
2022/04/12 06:32:46;;;;;;;7.78;3.53;;;;;;;;;;5047383;28;20029;-53
2022/04/12 06:35:13;;;;;;;10.00;4.30;;;;;;;;;;5048979;28;20079;-55
2022/04/12 06:37:40;;;;;;;6.45;3.95;;;;;;;;;;5048767;28;20040;-55
2022/04/12 06:40:07;;;;;;;11.27;3.78;;;;;;;;;;5049019;28;20029;-52
2022/04/12 06:42:34;;;;;;;8.05;3.85;;;;;;;;;;5049029;28;20029;-54
2022/04/12 06:45:00;;;;;;;7.93;3.63;;;;;;;;;;5044707;28;20049;-52
2022/04/12 06:47:26;;;;;;;7.03;3.63;;;;;;;;;;5043345;28;20036;-55
2022/04/12 06:49:52;;;;;;;6.28;3.58;;;;;;;;;;5048778;28;20021;-54
2022/04/12 06:52:20;;;;;;;10.55;3.70;;;;;;;;;;5048590;28;20441;-54
2022/04/12 06:54:46;;;;;;;8.10;3.50;;;;;;;;;;5048111;28;20390;-57
2022/04/12 06:57:13;;;;;;;7.10;3.42;;;;;;;;;;5048962;28;20033;-57
2022/04/12 06:59:39;;;;;;;6.32;3.40;;;;;;;;;;5048875;28;20021;-51
2022/04/12 07:02:05;;;;;;;10.10;3.90;;;;;;;;;;5047759;28;20029;-55
2022/04/12 07:04:31;;;;;;;7.93;4.78;;;;;;;;;;5048052;28;20395;-57
2022/04/12 07:06:57;;;;;;;8.52;4.70;;;;;;;;;;5048494;28;20108;-55
2022/04/12 07:09:24;;;;;;;6.60;4.25;;;;;;;;;;5048563;28;20112;-54
2022/04/12 07:11:53;;;;;;;7.22;4.53;;;;;;;;;;5047734;28;20110;-55
2022/04/12 07:14:19;;;;;;;9.50;3.65;;;;;;;;;;5048319;28;20013;-57
2022/04/12 07:16:45;;;;;;;7.85;3.95;;;;;;;;;;5041881;28;20112;-57
2022/04/12 07:19:11;;;;;;;11.45;3.72;;;;;;;;;;5047815;28;20175;-56
2022/04/12 07:21:37;;;;;;;9.05;4.25;;;;;;;;;;5048099;28;20032;-56
2022/04/12 07:24:03;;;;;;;8.48;4.05;;;;;;;;;;5048139;28;20021;-57
2022/04/12 07:26:32;;;;;;;7.55;4.40;;;;;;;;;;5047238;28;20912;-56
2022/04/12 07:28:59;;;;;;;6.97;3.55;;;;;;;;;;5048341;28;20112;-58
2022/04/12 07:31:25;;;;;;;8.13;3.83;;;;;;;;;;5047875;28;20052;-57
2022/04/12 07:33:52;;;;;;;9.18;3.30;;;;;;;;;;5047630;28;20075;-51
2022/04/12 07:36:18;;;;;;;9.45;3.67;;;;;;;;;;5047952;28;20021;-51
2022/04/12 07:38:44;;;;;;;8.20;3.97;;;;;;;;;;5047970;28;20411;-55
2022/04/12 07:41:10;;;;;;;9.98;3.90;;;;;;;;;;5047212;28;20045;-54
2022/04/12 07:43:37;;;;;;;9.05;3.53;;;;;;;;;;5047966;28;20450;-54
2022/04/12 07:46:03;;;;;;;9.45;3.80;;;;;;;;;;5046415;28;20033;-57
2022/04/12 07:48:29;;;;;;;10.63;3.78;;;;;;;;;;5048101;28;20065;-56
2022/04/12 07:50:55;;;;;;;8.13;3.25;;;;;;;;;;5048196;28;20530;-56
2022/04/12 07:53:21;;;;;;;8.93;3.30;;;;;;;;;;5047998;28;20450;-55
2022/04/12 07:55:47;;;;;;;7.80;3.65;;;;;;;;;;5047650;28;20037;-55
2022/04/12 07:58:15;;;;;;;5.45;2.70;;;;;;;;;;5047409;28;20369;-57
2022/04/12 08:00:41;;;;;;;5.95;3.40;;;;;;;;;;5048246;28;20110;-57
2022/04/12 08:03:07;;;;;;;8.30;3.67;;;;;;;;;;5042550;28;20091;-53
2022/04/12 08:05:34;;;;;;;6.95;3.28;;;;;;;;;;5048641;28;20505;-57
2022/04/12 08:08:00;;;;;;;5.88;2.83;;;;;;;;;;5048221;28;20502;-57
2022/04/12 08:10:26;;;;;;;8.30;3.35;;;;;;;;;;5047569;28;20748;-56
2022/04/12 08:12:52;;;;;;;7.70;3.17;;;;;;;;;;5047982;28;20075;-57
2022/04/12 08:15:18;;;;;;;7.53;3.40;;;;;;;;;;5047826;28;20029;-56
2022/04/12 08:17:44;;;;;;;6.85;3.45;;;;;;;;;;5046147;28;20055;-57
2022/04/12 08:20:13;;;;;;;12.00;3.53;;;;;;;;;;5047571;28;20140;-57
2022/04/12 08:22:40;;;;;;;16.70;3.90;;;;;;;;;;5047368;28;20017;-56
2022/04/12 08:25:07;;;;;;;6.20;3.78;;;;;;;;;;5046971;28;20079;-57
2022/04/12 08:27:33;;;;;;;8.35;3.35;;;;;;;;;;5048844;28;20248;-54
2022/04/12 08:30:00;;;;;;;9.70;3.20;;;;;;;;;;5051329;28;20059;-57
2022/04/12 08:32:26;;;;;;;8.80;4.70;;;;;;;;;;5038555;28;20117;-56
2022/04/12 08:34:53;;;;;;;10.52;5.57;;;;;;;;;;5051440;28;20025;-55
2022/04/12 08:37:21;;;;;;;10.30;4.72;;;;;;;;;;5051227;28;20051;-55
2022/04/12 08:39:47;;;;;;;9.30;3.97;;;;;;;;;;5051205;28;20029;-55
2022/04/12 08:42:13;;;;;;;7.03;3.30;;;;;;;;;;5050985;28;20518;-54
2022/04/12 08:44:39;;;;;;;7.13;4.40;;;;;;;;;;5050463;28;20068;-58
2022/04/12 08:47:07;;;;;;;7.07;4.00;;;;;;;;;;5049841;28;20043;-59
2022/04/12 08:49:33;;;;;;;8.82;4.07;;;;;;;;;;5050682;28;20036;-57
2022/04/12 08:51:59;;;;;;;8.45;4.50;;;;;;;;;;5050818;28;20056;-57
2022/04/12 08:54:25;;;;;;;9.45;4.88;;;;;;;;;;5050815;28;20379;-55
2022/04/12 08:56:52;;;;;;;7.80;4.20;;;;;;;;;;5050909;28;20086;-56
2022/04/12 08:59:19;;;;;;;6.32;3.88;;;;;;;;;;5050651;28;20040;-57
2022/04/12 09:01:48;;;;;;;6.50;3.28;;;;;;;;;;5037526;28;20427;-57
2022/04/12 09:04:14;;;;;;;6.82;3.25;;;;;;;;;;5039016;28;20107;-56
2022/04/12 09:06:50;;;;;;;5.53;3.47;;;;;;;;;;5050384;28;20082;-56
2022/04/12 09:09:18;;;;;;;7.28;3.90;;;;;;;;;;5050217;28;20439;-58
2022/04/12 09:11:54;;;;;;;7.80;3.60;;;;;;;;;;5050348;28;20498;-56
2022/04/12 09:14:20;;;;;;;7.28;3.15;;;;;;;;;;5050294;28;20139;-57
2022/04/12 09:16:47;;;;;;;8.18;3.67;;;;;;;;;;5049129;28;20033;-58
2022/04/12 09:19:13;;;;;;;7.10;3.40;;;;;;;;;;5050267;28;20060;-58
2022/04/12 09:21:46;;;;;;;10.10;3.80;;;;;;;;;;5050104;28;20067;-58
2022/04/12 09:24:21;;;;;;;5.20;2.80;;;;;;;;;;5050340;28;20437;-60
2022/04/12 09:26:57;;;;;;;6.63;3.28;;;;;;;;;;5050111;28;20060;-55
2022/04/12 09:29:27;;;;;;;5.88;3.33;;;;;;;;;;5050137;28;20035;-57
2022/04/12 09:31:59;;;;;;;8.60;3.58;;;;;;;;;;5049165;28;20049;-57
2022/04/12 09:34:26;;;;;;;6.47;3.08;;;;;;;;;;5050370;28;20025;-55
2022/04/12 09:36:52;;;;;;;6.30;3.50;;;;;;;;;;5046010;28;20468;-58
2022/04/12 09:39:19;;;;;;;5.22;2.88;;;;;;;;;;5050025;28;20044;-56
2022/04/12 09:41:48;;;;;;;5.60;3.03;;;;;;;;;;5049642;28;20441;-57
2022/04/12 09:44:17;;;;;;;5.43;2.92;;;;;;;;;;5049775;28;20496;-57
2022/04/12 09:46:44;;;;;;;7.55;3.10;;;;;;;;;;5048395;28;20487;-54
2022/04/12 09:49:10;;;;;;;6.38;3.38;;;;;;;;;;5050314;28;20029;-54
2022/04/12 09:51:37;;;;;;;6.45;3.30;;;;;;;;;;5049773;28;20028;-58
2022/04/12 09:54:07;;;;;;;6.07;2.90;;;;;;;;;;5049433;28;20099;-57
2022/04/12 09:56:34;;;;;;;6.90;3.05;;;;;;;;;;5048976;28;20021;-56
2022/04/12 09:59:00;;;;;;;6.50;3.60;;;;;;;;;;5049430;28;20475;-57
2022/04/12 10:01:27;;;;;;;6.18;2.90;;;;;;;;;;5048059;28;20036;-56
2022/04/12 10:03:57;;;;;;;5.90;3.00;;;;;;;;;;5049752;28;20025;-57
2022/04/12 10:06:24;;;;;;;4.95;2.45;;;;;;;;;;5049653;28;20021;-58
2022/04/12 10:08:53;;;;;;;5.22;2.70;;;;;;;;;;5049874;28;20037;-57
2022/04/12 10:11:19;;;;;;;5.05;2.55;;;;;;;;;;5049133;28;20402;-56
2022/04/12 10:13:45;;;;;;;5.63;2.92;;;;;;;;;;5049596;28;20446;-56
2022/04/12 10:16:14;;;;;;;5.20;2.40;;;;;;;;;;5047869;28;20096;-58
2022/04/12 10:18:40;;;;;;;5.25;2.40;;;;;;;;;;5049353;28;20128;-55
2022/04/12 10:21:06;;;;;;;5.38;2.47;;;;;;;;;;5049412;28;20035;-58
2022/04/12 10:23:33;;;;;;;5.30;2.28;;;;;;;;;;5049113;28;20399;-58
2022/04/12 10:26:00;;;;;;;6.60;2.80;;;;;;;;;;5049148;28;20029;-58
2022/04/12 10:28:27;;;;;;;5.32;2.63;;;;;;;;;;5047448;28;20028;-58
2022/04/12 10:31:02;;;;;;;3.75;2.08;;;;;;;;;;5048183;28;20045;-58
2022/04/12 10:33:29;;;;;;;5.75;2.47;;;;;;;;;;5048268;28;20037;-59
2022/04/12 10:35:55;;;;;;;4.63;2.33;;;;;;;;;;5049563;28;20078;-58
2022/04/12 10:38:23;;;;;;;5.00;2.60;;;;;;;;;;5048060;28;20041;-58
2022/04/12 10:40:50;;;;;;;4.95;2.20;;;;;;;;;;5048827;28;20033;-58
2022/04/12 10:43:30;;;;;;;4.60;2.22;;;;;;;;;;5048835;28;20033;-59
2022/04/12 10:45:58;;;;;;;7.35;2.70;;;;;;;;;;5038487;28;20116;-58
2022/04/12 10:48:28;;;;;;;4.18;2.25;;;;;;;;;;5047485;28;20031;-60
2022/04/12 10:50:56;;;;;;;4.90;1.92;;;;;;;;;;5048952;28;20029;-59
2022/04/12 10:53:42;;;;;;;4.30;1.90;;;;;;;;;;5037592;28;20025;-59
2022/04/12 10:56:12;;;;;;;6.05;2.65;;;;;;;;;;5047757;28;20048;-58
2022/04/12 10:58:38;;;;;;;7.43;2.22;;;;;;;;;;5048095;28;20033;-58
2022/04/12 11:01:05;;;;;;;4.80;2.03;;;;;;;;;;5048432;28;20108;-57
2022/04/12 11:03:40;;;;;;;5.07;2.00;;;;;;;;;;5048273;28;20055;-57
2022/04/12 11:06:12;;;;;;;4.38;1.90;;;;;;;;;;5048683;28;20488;-59
2022/04/12 11:08:38;;;;;;;5.32;2.30;;;;;;;;;;5043109;28;20029;-59
2022/04/12 11:11:06;;;;;;;5.65;2.58;;;;;;;;;;5048866;28;20442;-58
2022/04/12 11:13:32;;;;;;;4.50;2.15;;;;;;;;;;5048241;28;20040;-58
2022/04/12 11:16:09;;;;;;;4.18;1.88;;;;;;;;;;5048088;28;20025;-58
2022/04/12 11:18:48;;;;;;;4.88;1.98;;;;;;;;;;5048528;28;20163;-58
2022/04/12 11:21:14;;;;;;;3.70;1.80;;;;;;;;;;5046467;28;20040;-57
2022/04/12 11:23:48;;;;;;;3.08;1.63;;;;;;;;;;5047371;28;20108;-58
2022/04/12 11:26:33;;;;;;;4.32;1.98;;;;;;;;;;5048407;28;20553;-59
2022/04/12 11:28:59;;;;;;;5.55;2.25;;;;;;;;;;5047844;28;20103;-58
2022/04/12 11:31:25;;;;;;;7.20;2.50;;;;;;;;;;5047985;28;20125;-57
2022/04/12 11:33:51;;;;;;;4.65;1.90;;;;;;;;;;5048231;28;20025;-58
2022/04/12 11:36:18;;;;;;;3.17;1.75;;;;;;;;;;5047595;28;20755;-57
2022/04/12 11:38:44;;;;;;;4.60;2.17;;;;;;;;;;5034941;28;20119;-58
2022/04/12 11:41:10;;;;;;;4.10;1.58;;;;;;;;;;5048242;28;20024;-58
2022/04/12 11:43:36;;;;;;;4.75;1.80;;;;;;;;;;5047760;28;20036;-58
2022/04/12 11:46:02;;;;;;;5.55;2.20;;;;;;;;;;5047864;28;20025;-58
2022/04/12 11:48:29;;;;;;;3.38;1.60;;;;;;;;;;5048115;28;20120;-58
2022/04/12 11:50:56;;;;;;;3.72;1.50;;;;;;;;;;5047840;28;20438;-58
2022/04/12 11:53:22;;;;;;;3.38;1.70;;;;;;;;;;5033194;28;20094;-59
2022/04/12 11:55:50;;;;;;;5.93;1.77;;;;;;;;;;5043805;28;20585;-58
2022/04/12 11:58:19;;;;;;;3.20;1.70;;;;;;;;;;5047794;28;20119;-59
2022/04/12 12:00:45;;;;;;;3.00;1.60;;;;;;;;;;5051194;28;20025;-58
2022/04/12 12:03:16;;;;;;;3.45;1.73;;;;;;;;;;5052241;28;20029;-58
2022/04/12 12:05:42;;;;;;;4.57;1.67;;;;;;;;;;5051671;28;20450;-58
2022/04/12 12:08:10;;;;;;;2.30;1.30;;;;;;;;;;5051693;28;20033;-58
2022/04/12 12:10:37;;;;;;;3.20;1.55;;;;;;;;;;5051282;28;20040;-58
2022/04/12 12:13:07;;;;;;;3.67;1.80;;;;;;;;;;5051694;28;20366;-58
2022/04/12 12:15:34;;;;;;;2.75;1.40;;;;;;;;;;5049880;28;20107;-59
2022/04/12 12:18:06;;;;;;;3.42;1.23;;;;;;;;;;5051322;28;20507;-58
2022/04/12 12:20:32;;;;;;;2.83;1.52;;;;;;;;;;5051299;28;20017;-58
2022/04/12 12:23:00;;;;;;;4.78;1.58;;;;;;;;;;5050798;28;20174;-58
2022/04/12 12:25:42;;;;;;;2.83;1.42;;;;;;;;;;5051433;28;20074;-58
2022/04/12 12:28:12;;;;;;;2.40;1.50;;;;;;;;;;5031675;28;20049;-58
2022/04/12 12:30:38;;;;;;;3.70;1.80;;;;;;;;;;5035694;28;20130;-58
2022/04/12 12:33:04;;;;;;;3.58;1.40;;;;;;;;;;5051545;28;20475;-58
2022/04/12 12:35:30;;;;;;;3.95;1.67;;;;;;;;;;5050829;28;20418;-58
2022/04/12 12:38:27;;;;;;;2.45;1.30;;;;;;;;;;5050293;28;20068;-58
2022/04/12 12:40:55;;;;;;;4.45;1.63;;;;;;;;;;5050550;28;20090;-59
2022/04/12 12:43:21;;;;;;;4.57;2.35;;;;;;;;;;5051136;28;20032;-58
2022/04/12 12:45:47;;;;;;;5.97;1.55;;;;;;;;;;5050579;28;20031;-58
2022/04/12 12:48:17;;;;;;;3.13;1.42;;;;;;;;;;5051247;28;20029;-58
2022/04/12 12:50:43;;;;;;;;;;;;;;;;;;5051823;28;20060;-58
2022/04/12 12:53:12;;;;;;;2.83;1.42;;;;;;;;;;5049688;28;19948;-58
2022/04/12 12:55:49;;;;;;;3.20;1.40;;;;;;;;;;5050442;28;20029;-58
2022/04/12 12:58:17;;;;;;;5.18;1.48;;;;;;;;;;5050657;28;20051;-58
2022/04/12 13:00:43;;;;;;;4.00;1.50;;;;;;;;;;5050635;28;20029;-58
2022/04/12 13:03:10;;;;;;;4.15;1.75;;;;;;;;;;5050501;28;20032;-58
2022/04/12 13:05:39;;;;;;;3.28;1.40;;;;;;;;;;5049556;28;20029;-58
2022/04/12 13:08:06;;;;;;;3.13;1.42;;;;;;;;;;5050360;28;20036;-58
2022/04/12 13:10:35;;;;;;;3.85;1.35;;;;;;;;;;5050416;28;20119;-58
2022/04/12 13:13:01;;;;;;;2.80;1.20;;;;;;;;;;5050717;28;20073;-58
2022/04/12 13:15:28;;;;;;;3.88;1.40;;;;;;;;;;5049102;28;20056;-59
2022/04/12 13:17:54;;;;;;;3.35;1.55;;;;;;;;;;5050454;28;20136;-58
2022/04/12 13:20:20;;;;;;;2.72;1.10;;;;;;;;;;5050094;28;20029;-58
2022/04/12 13:22:47;;;;;;;2.63;1.13;;;;;;;;;;5042239;28;20092;-60
2022/04/12 13:25:17;;;;;;;2.83;1.30;;;;;;;;;;5046651;28;20467;-59
2022/04/12 13:27:43;;;;;;;;;;;;;;;;;;5044870;28;20036;-60
2022/04/12 13:30:10;;;;;;;12.82;3.13;;;;;;;;;;5049724;28;19963;-59
2022/04/12 13:32:38;;;;;;;8.63;2.72;;;;;;;;;;5049872;28;20056;-58
2022/04/12 13:35:04;;;;;;;19.27;3.90;;;;;;;;;;5049894;28;20029;-59
2022/04/12 13:37:30;;;;;;;9.05;2.85;;;;;;;;;;5048827;28;20718;-58
2022/04/12 13:39:56;;;;;;;7.93;2.55;;;;;;;;;;5050708;28;20441;-58
2022/04/12 13:42:23;;;;;;;16.27;3.08;;;;;;;;;;5040897;28;20026;-56
2022/04/12 13:44:52;;;;;;;9.02;3.03;;;;;;;;;;5045057;28;20086;-58
2022/04/12 13:47:18;;;;;;;7.45;3.05;;;;;;;;;;5038153;28;20055;-58
2022/04/12 13:49:45;;;;;;;16.30;3.70;;;;;;;;;;5041602;28;20021;-58
2022/04/12 13:52:11;;;;;;;14.02;3.88;;;;;;;;;;5041718;28;20115;-58
2022/04/12 13:54:37;;;;;;;10.93;3.53;;;;;;;;;;5043547;28;20682;-58
2022/04/12 13:57:03;;;;;;;8.93;3.38;;;;;;;;;;5035864;28;20034;-57
2022/04/12 13:59:29;;;;;;;13.85;3.88;;;;;;;;;;5038788;28;20029;-58
2022/04/12 14:01:56;;;;;;;12.43;3.58;;;;;;;;;;5040671;28;20051;-57
2022/04/12 14:04:23;;;;;;;10.40;3.33;;;;;;;;;;5049344;28;20023;-53
2022/04/12 14:06:49;;;;;;;12.50;3.40;;;;;;;;;;5046102;28;20108;-56
2022/04/12 14:09:15;;;;;;;12.20;3.88;;;;;;;;;;5048931;28;20095;-57
2022/04/12 14:11:42;;;;;;;11.27;4.28;;;;;;;;;;5049525;28;20108;-56
2022/04/12 14:14:11;;;;;;;12.32;4.50;;;;;;;;;;5049327;28;20033;-59
2022/04/12 14:16:37;;;;;;;10.60;4.70;;;;;;;;;;5038395;28;20032;-56
2022/04/12 14:19:03;;;;;;;14.43;5.05;;;;;;;;;;5049080;28;20079;-56
2022/04/12 14:21:29;;;;;;;14.02;4.32;;;;;;;;;;5047360;28;20048;-55
2022/04/12 14:23:55;;;;;;;11.52;4.57;;;;;;;;;;5048738;28;20079;-57
2022/04/12 14:26:21;;;;;;;10.95;4.10;;;;;;;;;;5034060;28;20029;-57
2022/04/12 14:28:47;;;;;;;9.07;4.25;;;;;;;;;;5033134;28;20927;-58
2022/04/12 14:31:13;;;;;;;12.85;4.55;;;;;;;;;;5034804;28;20140;-57
2022/04/12 14:33:40;;;;;;;9.32;3.78;;;;;;;;;;5034235;28;20026;-56
2022/04/12 14:36:07;;;;;;;10.63;4.20;;;;;;;;;;5036079;28;20115;-57
2022/04/12 14:38:33;;;;;;;13.32;4.35;;;;;;;;;;5037601;28;20036;-54
2022/04/12 14:40:59;;;;;;;13.25;3.78;;;;;;;;;;5032425;28;20033;-57
2022/04/12 14:43:26;;;;;;;7.88;3.58;;;;;;;;;;5033022;28;20033;-58